createdAt,value
2022-10-07T00:00:58.135Z,100062.69
2022-10-07T00:03:27.437Z,100061.97
2022-10-07T00:06:01.135Z,100051.34
2022-10-07T00:08:28.337Z,100066.41
2022-10-07T00:10:55.509Z,100070.25
2022-10-07T00:13:22.395Z,100076.75
2022-10-07T00:15:49.456Z,100058.31
2022-10-07T00:18:16.367Z,100045.88
2022-10-07T00:20:43.297Z,100058.31
2022-10-07T00:23:10.230Z,100038.13
2022-10-07T00:25:39.892Z,100042.63
2022-10-07T00:28:06.990Z,100027.78
2022-10-07T00:30:34.111Z,100027.78
2022-10-07T00:33:01.116Z,100026.91
2022-10-07T00:35:28.188Z,100044.41
2022-10-07T00:37:55.253Z,100030.28
2022-10-07T00:40:22.116Z,100024.50
2022-10-07T00:42:49.002Z,100029.78
2022-10-07T00:45:19.554Z,100036.06
2022-10-07T00:47:49.651Z,100024.72
2022-10-07T00:50:22.361Z,100027.38
2022-10-07T00:52:56.671Z,100034.66
2022-10-07T00:55:27.172Z,100037.31
2022-10-07T00:57:57.558Z,100043.47
2022-10-07T01:00:24.600Z,100005.63
2022-10-07T01:02:52.295Z,100010.06
2022-10-07T01:05:20.427Z,100027.06
2022-10-07T01:07:49.629Z,100029.72
2022-10-07T01:10:20.554Z,100019.22
2022-10-07T01:13:17.777Z,100024.63
2022-10-07T01:15:59.699Z,100043.19
2022-10-07T01:18:46.367Z,100061.16
2022-10-07T01:21:54.832Z,100071.00
2022-10-07T01:24:38.515Z,100070.19
2022-10-07T01:27:15.724Z,100072.06
2022-10-07T01:29:56.275Z,100079.19
2022-10-07T01:32:35.338Z,100074.72
2022-10-07T01:35:06.287Z,100082.91
2022-10-07T01:37:37.629Z,100085.81
2022-10-07T01:40:11.695Z,100083.88
2022-10-07T01:42:39.653Z,100088.22
2022-10-07T01:45:10.352Z,100090.13
2022-10-07T01:47:37.187Z,100089.19
2022-10-07T01:50:12.668Z,100079.53
2022-10-07T01:53:15.161Z,100102.78
2022-10-07T01:55:55.836Z,100103.38
2022-10-07T01:58:41.432Z,100122.94
2022-10-07T02:01:20.054Z,100101.72
2022-10-07T02:03:49.921Z,100099.78
2022-10-07T02:06:49.173Z,100084.81
2022-10-07T02:09:25.705Z,100089.63
2022-10-07T02:11:58.682Z,100079.00
2022-10-07T02:14:38.598Z,100087.91
2022-10-07T02:17:17.226Z,100082.38
2022-10-07T02:19:49.228Z,100080.72
2022-10-07T02:22:18.756Z,100075.50
2022-10-07T02:24:47.959Z,100076.34
2022-10-07T02:27:18.488Z,100078.16
2022-10-07T02:29:48.006Z,100082.59
2022-10-07T02:32:20.857Z,100075.41
2022-10-07T02:34:53.021Z,100082.50
2022-10-07T02:37:26.757Z,100071.78
2022-10-07T02:39:56.169Z,100062.03
2022-10-07T02:42:33.864Z,100058.66
2022-10-07T02:45:24.533Z,100059.50
2022-10-07T02:48:01.092Z,100060.34
2022-10-07T02:50:35.852Z,100041.66
2022-10-07T02:53:04.541Z,100034.66
2022-10-07T02:55:32.925Z,100043.59
2022-10-07T02:58:04.410Z,100046.25
2022-10-07T03:00:35.247Z,100038.28
2022-10-07T03:03:05.277Z,100027.91
2022-10-07T03:05:35.297Z,100028.75
2022-10-07T03:08:08.481Z,100038.50
2022-10-07T03:10:35.611Z,100034.06
2022-10-07T03:13:05.209Z,100042.13
2022-10-07T03:15:33.141Z,100036.81
2022-10-07T03:18:00.053Z,100053.69
2022-10-07T03:20:27.021Z,100058.03
2022-10-07T03:22:53.885Z,100055.38
2022-10-07T03:25:20.738Z,100064.41
2022-10-07T03:27:48.933Z,100052.72
2022-10-07T03:30:15.808Z,100057.28
2022-10-07T03:32:43.066Z,100055.50
2022-10-07T03:35:10.918Z,100054.78
2022-10-07T03:37:37.818Z,100067.03
2022-10-07T03:40:05.320Z,100065.25
2022-10-07T03:42:32.187Z,100061.00
2022-10-07T03:45:00.325Z,100057.50
2022-10-07T03:47:27.699Z,100047.84
2022-10-07T03:49:55.511Z,100045.19
2022-10-07T03:52:22.556Z,100047.84
2022-10-07T03:54:49.458Z,100057.72
2022-10-07T03:57:35.047Z,100048.91
2022-10-07T04:00:02.012Z,100055.06
2022-10-07T04:02:28.880Z,100060.59
2022-10-07T04:04:55.765Z,100043.00
2022-10-07T04:07:23.026Z,100042.16
2022-10-07T04:09:49.922Z,100051.91
2022-10-07T04:12:16.933Z,100051.19
2022-10-07T04:14:43.904Z,100051.19
2022-10-07T04:17:10.865Z,100048.53
2022-10-07T04:19:37.746Z,100054.78
2022-10-07T04:22:08.948Z,100050.34
2022-10-07T04:24:36.158Z,100049.59
2022-10-07T04:27:05.219Z,100041.53
2022-10-07T04:29:38.112Z,100051.41
2022-10-07T04:32:05.978Z,100067.44
2022-10-07T04:34:32.918Z,100061.28
2022-10-07T04:37:01.460Z,100070.16
2022-10-07T04:39:43.032Z,100071.97
2022-10-07T04:42:34.196Z,100061.16
2022-10-07T04:45:01.042Z,100056.56
2022-10-07T04:47:27.869Z,100058.28
2022-10-07T04:49:55.430Z,100051.28
2022-10-07T04:52:22.304Z,100049.38
2022-10-07T04:54:49.209Z,100041.53
2022-10-07T04:57:16.070Z,100048.53
2022-10-07T04:59:43.339Z,100047.59
2022-10-07T05:02:10.267Z,100054.69
2022-10-07T05:04:37.366Z,100056.56
2022-10-07T05:07:04.661Z,100058.72
2022-10-07T05:09:31.477Z,100055.13
2022-10-07T05:11:58.316Z,100058.63
2022-10-07T05:14:25.311Z,100060.22
2022-10-07T05:16:52.406Z,100066.38
2022-10-07T05:19:20.361Z,100057.44
2022-10-07T05:21:47.257Z,100057.22
2022-10-07T05:24:14.073Z,100051.69
2022-10-07T05:26:41.028Z,100051.34
2022-10-07T05:29:07.975Z,100044.97
2022-10-07T05:31:34.810Z,100041.16
2022-10-07T05:34:02.396Z,100040.09
2022-10-07T05:36:29.247Z,100042.63
2022-10-07T05:38:59.312Z,100041.66
2022-10-07T05:41:28.362Z,100045.06
2022-10-07T05:43:55.312Z,100041.47
2022-10-07T05:46:23.949Z,100040.47
2022-10-07T05:48:52.911Z,100049.19
2022-10-07T05:51:21.438Z,100048.91
2022-10-07T05:53:48.440Z,100048.91
2022-10-07T05:56:17.525Z,100064.59
2022-10-07T05:58:44.958Z,100063.63
2022-10-07T06:01:20.742Z,100077.84
2022-10-07T06:03:53.292Z,100089.19
2022-10-07T06:06:21.066Z,100099.06
2022-10-07T06:08:48.630Z,100098.09
2022-10-07T06:11:35.413Z,100100.84
2022-10-07T06:14:02.890Z,100103.59
2022-10-07T06:16:29.792Z,100098.31
2022-10-07T06:18:56.940Z,100098.31
2022-10-07T06:21:28.633Z,100111.78
2022-10-07T06:23:58.173Z,100113.81
2022-10-07T06:26:25.754Z,100118.47
2022-10-07T06:28:52.769Z,100117.03
2022-10-07T06:31:22.843Z,100112.66
2022-10-07T06:33:50.675Z,100118.81
2022-10-07T06:36:18.047Z,100126.03
2022-10-07T06:38:46.443Z,100119.03
2022-10-07T06:41:13.835Z,100116.38
2022-10-07T06:43:40.980Z,100107.50
2022-10-07T06:46:13.226Z,100097.94
2022-10-07T06:48:42.531Z,100097.94
2022-10-07T06:51:12.982Z,100101.53
2022-10-07T06:53:39.804Z,100114.88
2022-10-07T06:56:07.080Z,100107.06
2022-10-07T06:58:34.673Z,100110.66
2022-10-07T07:01:01.965Z,100119.59
2022-10-07T07:03:29.643Z,100132.84
2022-10-07T07:05:57.115Z,100133.78
2022-10-07T07:08:28.065Z,100142.91
2022-10-07T07:10:56.179Z,100149.06
2022-10-07T07:13:23.271Z,100158.81
2022-10-07T07:15:57.992Z,100162.41
2022-10-07T07:18:25.864Z,100159.03
2022-10-07T07:20:52.959Z,100166.00
2022-10-07T07:23:19.813Z,100182.88
2022-10-07T07:25:46.777Z,100183.81
2022-10-07T07:28:16.137Z,100183.81
2022-10-07T07:30:43.243Z,100186.47
2022-10-07T07:33:10.789Z,100184.78
2022-10-07T07:35:43.805Z,100177.66
2022-10-07T07:38:10.925Z,100172.38
2022-10-07T07:40:39.279Z,100176.84
2022-10-07T07:43:07.299Z,100167.91
2022-10-07T07:45:37.407Z,100171.53
2022-10-07T07:48:05.044Z,100171.53
2022-10-07T07:50:32.134Z,100181.28
2022-10-07T07:53:02.227Z,100172.50
2022-10-07T07:55:29.153Z,100160.09
2022-10-07T07:57:56.021Z,100155.66
2022-10-07T08:00:23.005Z,100163.59
2022-10-07T08:02:49.980Z,100160.94
2022-10-07T08:05:21.429Z,100161.16
2022-10-07T08:07:50.665Z,100156.59
2022-10-07T08:10:17.578Z,100149.69
2022-10-07T08:12:44.491Z,100141.84
2022-10-07T08:15:11.510Z,100157.66
2022-10-07T08:17:38.484Z,100156.78
2022-10-07T08:20:05.914Z,100144.59
2022-10-07T08:22:32.969Z,100161.38
2022-10-07T08:25:00.599Z,100168.56
2022-10-07T08:27:28.574Z,100169.53
2022-10-07T08:29:55.753Z,100178.31
2022-10-07T08:32:22.751Z,100178.31
2022-10-07T08:34:49.748Z,100183.63
2022-10-07T08:37:16.818Z,100176.53
2022-10-07T08:39:43.735Z,100180.13
2022-10-07T08:42:30.888Z,100180.25
2022-10-07T08:44:57.945Z,100184.69
2022-10-07T08:47:30.811Z,100181.06
2022-10-07T08:50:18.108Z,100169.63
2022-10-07T08:53:17.507Z,100176.00
2022-10-07T08:55:57.250Z,100174.09
2022-10-07T08:59:07.434Z,100179.38
2022-10-07T09:01:55.587Z,100170.59
2022-10-07T09:04:51.718Z,100154.81
2022-10-07T09:07:45.937Z,100163.56
2022-10-07T09:10:53.878Z,100160.94
2022-10-07T09:13:24.769Z,100151.19
2022-10-07T09:16:04.310Z,100154.81
2022-10-07T09:18:39.479Z,100165.41
2022-10-07T09:21:13.548Z,100167.06
2022-10-07T09:23:40.848Z,100150.66
2022-10-07T09:26:19.420Z,100149.50
2022-10-07T09:28:46.540Z,100164.56
2022-10-07T09:31:16.525Z,100171.53
2022-10-07T09:33:47.189Z,100168.88
2022-10-07T09:36:18.655Z,100169.72
2022-10-07T09:38:52.739Z,100188.06
2022-10-07T09:41:39.000Z,100191.44
2022-10-07T09:44:26.787Z,100182.34
2022-10-07T09:46:59.926Z,100185.84
2022-10-07T09:49:31.930Z,100179.59
2022-10-07T09:52:07.425Z,100184.69
2022-10-07T09:54:36.519Z,100171.31
2022-10-07T09:57:06.035Z,100174.72
2022-10-07T09:59:37.179Z,100179.91
2022-10-07T10:02:15.967Z,100185.13
2022-10-07T10:04:49.314Z,100172.59
2022-10-07T10:07:36.923Z,100175.97
2022-10-07T10:10:05.869Z,100175.97
2022-10-07T10:12:45.680Z,100178.41
2022-10-07T10:15:27.554Z,100173.84
2022-10-07T10:17:57.363Z,100187.00
2022-10-07T10:20:24.393Z,100183.28
2022-10-07T10:22:52.693Z,100184.25
2022-10-07T10:26:07.748Z,100184.88
2022-10-07T10:29:02.063Z,100184.75
2022-10-07T10:32:16.303Z,100187.19
2022-10-07T10:35:07.819Z,100180.84
2022-10-07T10:37:40.549Z,100176.38
2022-10-07T10:40:31.826Z,100179.88
2022-10-07T10:43:04.683Z,100177.03
2022-10-07T10:45:57.596Z,100179.56
2022-10-07T10:48:44.410Z,100181.25
2022-10-07T10:51:32.277Z,100180.28
2022-10-07T10:54:21.478Z,100169.59
2022-10-07T10:56:58.685Z,100180.19
2022-10-07T10:59:37.845Z,100184.53
2022-10-07T11:02:25.433Z,100192.25
2022-10-07T11:04:57.468Z,100180.81
2022-10-07T11:07:33.242Z,100188.53
2022-10-07T11:10:05.838Z,100177.22
2022-10-07T11:12:41.769Z,100189.28
2022-10-07T11:15:24.595Z,100183.97
2022-10-07T11:17:54.939Z,100178.66
2022-10-07T11:20:43.827Z,100183.16
2022-10-07T11:23:32.852Z,100181.22
2022-10-07T11:26:06.677Z,100179.44
2022-10-07T11:28:37.193Z,100170.72
2022-10-07T11:31:16.049Z,100166.38
2022-10-07T11:33:50.841Z,100163.81
2022-10-07T11:36:44.201Z,100174.56
2022-10-07T11:39:11.292Z,100187.81
2022-10-07T11:42:02.177Z,100195.97
2022-10-07T11:44:47.629Z,100185.38
2022-10-07T11:47:20.893Z,100184.66
2022-10-07T11:49:58.131Z,100176.69
2022-10-07T11:52:28.954Z,100173.19
2022-10-07T11:55:01.027Z,100173.31
2022-10-07T11:57:32.848Z,100171.38
2022-10-07T12:00:22.527Z,100172.34
2022-10-07T12:02:50.229Z,100180.06
2022-10-07T12:05:35.609Z,100174.88
2022-10-07T12:08:24.084Z,100181.88
2022-10-07T12:10:56.184Z,100170.19
2022-10-07T12:13:22.990Z,100170.09
2022-10-07T12:15:51.749Z,100171.78
2022-10-07T12:18:27.887Z,100167.44
2022-10-07T12:21:02.582Z,100170.84
2022-10-07T12:23:36.510Z,100162.75
2022-10-07T12:26:26.376Z,100174.22
2022-10-07T12:28:54.023Z,100176.78
2022-10-07T12:31:23.775Z,100170.63
2022-10-07T12:33:58.107Z,100167.00
2022-10-07T12:36:26.665Z,100172.28
2022-10-07T12:38:56.749Z,100166.91
2022-10-07T12:41:31.261Z,100158.00
2022-10-07T12:44:23.268Z,100169.34
2022-10-07T12:47:01.814Z,100168.34
2022-10-07T12:49:45.852Z,100166.69
2022-10-07T12:52:33.469Z,100153.63
2022-10-07T12:55:27.189Z,100148.13
2022-10-07T12:58:19.753Z,100148.13
2022-10-07T13:01:28.450Z,100155.22
2022-10-07T13:04:19.080Z,100151.84
2022-10-07T13:07:11.856Z,100160.66
2022-10-07T13:09:41.831Z,100168.34
2022-10-07T13:12:46.281Z,100177.16
2022-10-07T13:15:17.323Z,100178.03
2022-10-07T13:18:11.029Z,100178.88
2022-10-07T13:20:43.571Z,100181.63
2022-10-07T13:23:22.100Z,100191.28
2022-10-07T13:25:53.758Z,100195.66
2022-10-07T13:28:24.701Z,100193.00
2022-10-07T13:30:53.262Z,100201.16
2022-10-07T13:33:38.364Z,100202.97
2022-10-07T13:36:19.085Z,100212.00
2022-10-07T13:38:48.173Z,100216.34
2022-10-07T13:41:28.173Z,100200.53
2022-10-07T13:44:06.184Z,100212.00
2022-10-07T13:46:36.544Z,100210.19
2022-10-07T13:49:04.283Z,100212.00
2022-10-07T13:51:35.782Z,100213.78
2022-10-07T13:54:16.678Z,100202.31
2022-10-07T13:56:44.649Z,100215.59
2022-10-07T13:59:18.226Z,100212.00
2022-10-07T14:01:48.934Z,100210.41
2022-10-07T14:04:23.689Z,100208.59
2022-10-07T14:07:12.657Z,100204.47
2022-10-07T14:09:48.602Z,100206.25
2022-10-07T14:12:22.728Z,100211.78
2022-10-07T14:14:56.377Z,100211.69
2022-10-07T14:17:39.926Z,100203.72
2022-10-07T14:20:18.049Z,100209.03
2022-10-07T14:22:53.674Z,100205.66
2022-10-07T14:25:29.352Z,100210.94
2022-10-07T14:27:59.377Z,100212.00
2022-10-07T14:30:58.642Z,100214.53
2022-10-07T14:34:01.210Z,100224.28
2022-10-07T14:36:28.397Z,100210.31
2022-10-07T14:39:03.817Z,100214.66
2022-10-07T14:41:31.867Z,100209.38
2022-10-07T14:44:02.696Z,100211.25
2022-10-07T14:46:29.943Z,100216.56
2022-10-07T14:48:56.959Z,100221.78
2022-10-07T14:51:27.271Z,100235.97
2022-10-07T14:54:01.238Z,100222.84
2022-10-07T14:56:31.588Z,100226.44
2022-10-07T14:58:58.605Z,100221.13
2022-10-07T15:01:28.660Z,100223.91
2022-10-07T15:03:59.152Z,100223.03
2022-10-07T15:06:26.319Z,100223.91
2022-10-07T15:08:53.945Z,100231.09
2022-10-07T15:11:21.948Z,100226.75
2022-10-07T15:13:50.438Z,100250.63
2022-10-07T15:16:19.066Z,100241.69
2022-10-07T15:18:51.866Z,100234.72
2022-10-07T15:21:19.834Z,100235.78
2022-10-07T15:23:52.057Z,100251.69
2022-10-07T15:26:21.631Z,100263.16
2022-10-07T15:28:52.670Z,100259.72
2022-10-07T15:31:19.664Z,100257.94
2022-10-07T15:33:47.017Z,100252.75
2022-10-07T15:36:14.413Z,100257.94
2022-10-07T15:38:42.112Z,100262.38
2022-10-07T15:41:09.237Z,100258.91
2022-10-07T15:43:36.494Z,100271.31
2022-10-07T15:46:03.653Z,100261.66
2022-10-07T15:48:30.709Z,100252.75
2022-10-07T15:50:57.970Z,100251.03
2022-10-07T15:53:25.832Z,100245.84
2022-10-07T15:55:54.673Z,100251.97
2022-10-07T15:58:29.229Z,100252.09
2022-10-07T16:01:05.571Z,100251.16
2022-10-07T16:03:42.254Z,100244.28
2022-10-07T16:06:21.820Z,100238.97
2022-10-07T16:08:50.074Z,100235.56
2022-10-07T16:11:17.929Z,100246.06
2022-10-07T16:13:47.463Z,100242.56
2022-10-07T16:16:24.128Z,100238.19
2022-10-07T16:18:53.657Z,100240.84
2022-10-07T16:21:24.879Z,100249.66
2022-10-07T16:23:56.454Z,100242.56
2022-10-07T16:26:27.142Z,100247.22
2022-10-07T16:29:17.769Z,100256.03
2022-10-07T16:31:46.624Z,100252.50
2022-10-07T16:34:16.321Z,100262.31
2022-10-07T16:36:45.862Z,100272.03
2022-10-07T16:39:13.740Z,100272.91
2022-10-07T16:41:44.554Z,100272.13
2022-10-07T16:44:12.106Z,100269.47
2022-10-07T16:46:39.373Z,100270.47
2022-10-07T16:49:08.002Z,100272.25
2022-10-07T16:51:37.606Z,100266.31
2022-10-07T16:54:07.063Z,100265.25
2022-10-07T16:56:36.267Z,100267.03
2022-10-07T16:59:05.752Z,100266.09
2022-10-07T17:01:33.579Z,100267.03
2022-10-07T17:04:01.557Z,100272.34
2022-10-07T17:06:30.597Z,100275.97
2022-10-07T17:09:03.279Z,100279.56
2022-10-07T17:11:34.651Z,100278.81
2022-10-07T17:14:02.923Z,100278.81
2022-10-07T17:16:34.089Z,100276.56
2022-10-07T17:19:01.554Z,100281.75
2022-10-07T17:21:28.575Z,100281.22
2022-10-07T17:23:58.866Z,100279.22
2022-10-07T17:26:27.674Z,100272.84
2022-10-07T17:29:03.234Z,100274.13
2022-10-07T17:31:31.309Z,100276.88
2022-10-07T17:33:59.067Z,100284.50
2022-10-07T17:36:27.723Z,100278.34
2022-10-07T17:38:54.983Z,100286.09
2022-10-07T17:41:24.853Z,100292.25
2022-10-07T17:43:56.131Z,100292.16
2022-10-07T17:46:26.108Z,100299.16
2022-10-07T17:48:57.723Z,100299.25
2022-10-07T17:51:28.410Z,100311.44
2022-10-07T17:53:57.061Z,100315.06
2022-10-07T17:56:24.109Z,100323.84
2022-10-07T17:58:51.242Z,100340.50
2022-10-07T18:01:23.896Z,100344.09
2022-10-07T18:03:57.309Z,100334.47
2022-10-07T18:06:29.106Z,100344.00
2022-10-07T18:08:56.495Z,100348.25
2022-10-07T18:11:43.868Z,100351.75
2022-10-07T18:14:29.754Z,100352.69
2022-10-07T18:16:56.694Z,100353.53
2022-10-07T18:19:25.416Z,100342.84
2022-10-07T18:21:52.416Z,100349.63
2022-10-07T18:24:19.447Z,100352.28
2022-10-07T18:26:47.043Z,100352.09
2022-10-07T18:29:14.618Z,100349.19
2022-10-07T18:31:43.589Z,100352.50
2022-10-07T18:34:12.406Z,100343.50
2022-10-07T18:36:39.603Z,100353.91
2022-10-07T18:39:12.573Z,100341.19
2022-10-07T18:41:43.000Z,100352.44
2022-10-07T18:44:10.815Z,100349.47
2022-10-07T18:46:38.115Z,100352.44
2022-10-07T18:49:05.560Z,100362.72
2022-10-07T18:51:32.603Z,100362.44
2022-10-07T18:53:59.708Z,100362.00
2022-10-07T18:56:26.848Z,100367.66
2022-10-07T18:58:56.297Z,100383.03
2022-10-07T19:01:26.196Z,100381.75
2022-10-07T19:03:58.940Z,100391.97
2022-10-07T19:06:27.887Z,100403.94
2022-10-07T19:08:57.130Z,100400.03
2022-10-07T19:11:24.872Z,100403.94
2022-10-07T19:13:56.909Z,100398.41
2022-10-07T19:16:36.451Z,100408.50
2022-10-07T19:19:18.459Z,100414.22
2022-10-07T19:21:48.038Z,100411.25
2022-10-07T19:24:17.877Z,100424.94
2022-10-07T19:26:48.701Z,100422.81
2022-10-07T19:29:17.071Z,100419.72
2022-10-07T19:31:48.984Z,100420.13
2022-10-07T19:34:20.466Z,100424.16
2022-10-07T19:36:49.192Z,100431.78
2022-10-07T19:39:22.348Z,100423.53
2022-10-07T19:41:51.413Z,100430.31
2022-10-07T19:44:19.548Z,100426.47
2022-10-07T19:46:46.676Z,100423.56
2022-10-07T19:49:14.930Z,100420.69
2022-10-07T19:51:42.599Z,100417.72
2022-10-07T19:54:12.317Z,100429.19
2022-10-07T19:56:41.249Z,100433.41
2022-10-07T19:59:10.738Z,100433.19
2022-10-07T20:01:42.462Z,100427.78
2022-10-07T20:04:16.517Z,100433.84
2022-10-07T20:06:44.926Z,100453.19
2022-10-07T20:09:14.958Z,100459.34
2022-10-07T20:11:42.817Z,100463.59
2022-10-07T20:14:10.445Z,100460.72
2022-10-07T20:16:38.596Z,100468.69
2022-10-07T20:19:11.352Z,100478.38
2022-10-07T20:21:39.810Z,100482.50
2022-10-07T20:24:08.090Z,100485.66
2022-10-07T20:26:38.208Z,100491.97
2022-10-07T20:29:08.088Z,100496.28
2022-10-07T20:31:37.538Z,100493.19
2022-10-07T20:34:06.114Z,100496.72
2022-10-07T20:36:36.071Z,100495.63
2022-10-07T20:39:27.885Z,100507.13
2022-10-07T20:42:13.355Z,100503.63
2022-10-07T20:44:40.468Z,100507.00
2022-10-07T20:47:10.413Z,100512.19
2022-10-07T20:49:41.861Z,100521.16
2022-10-07T20:52:17.397Z,100519.22
2022-10-07T20:54:45.605Z,100527.06
2022-10-07T20:57:18.197Z,100518.38
2022-10-07T20:59:45.478Z,100523.81
2022-10-07T21:02:15.119Z,100520.28
2022-10-07T21:04:43.514Z,100529.22
2022-10-07T21:07:10.888Z,100528.28
2022-10-07T21:09:37.940Z,100536.69
2022-10-07T21:12:07.756Z,100545.34
2022-10-07T21:14:36.149Z,100546.94
2022-10-07T21:17:05.602Z,100552.50
2022-10-07T21:19:34.714Z,100548.69
2022-10-07T21:22:03.858Z,100560.63
2022-10-07T21:24:33.720Z,100550.41
2022-10-07T21:27:09.368Z,100551.69
2022-10-07T21:29:40.754Z,100560.84
2022-10-07T21:32:09.560Z,100562.09
2022-10-07T21:34:37.178Z,100571.22
2022-10-07T21:37:06.762Z,100581.31
2022-10-07T21:39:33.955Z,100573.56
2022-10-07T21:42:02.182Z,100571.13
2022-10-07T21:44:29.742Z,100574.81
2022-10-07T21:47:00.408Z,100574.28
2022-10-07T21:49:27.434Z,100573.03
2022-10-07T21:51:54.497Z,100581.84
2022-10-07T21:54:21.643Z,100583.13
2022-10-07T21:56:50.527Z,100585.84
2022-10-07T21:59:17.541Z,100586.09
2022-10-07T22:01:45.156Z,100585.44
2022-10-07T22:04:18.045Z,100590.09
2022-10-07T22:07:16.042Z,100595.59
2022-10-07T22:09:43.049Z,100597.63
2022-10-07T22:12:10.317Z,100590.53
2022-10-07T22:14:38.310Z,100603.22
2022-10-07T22:17:05.291Z,100606.84
2022-10-07T22:19:32.378Z,100601.94
2022-10-07T22:21:59.478Z,100599.41
2022-10-07T22:24:26.506Z,100606.72
2022-10-07T22:26:53.504Z,100602.34
2022-10-07T22:29:21.952Z,100609.56
2022-10-07T22:31:49.313Z,100606.19
2022-10-07T22:34:35.134Z,100601.06
2022-10-07T22:37:02.566Z,100606.56
2022-10-07T22:39:29.723Z,100618.97
2022-10-07T22:42:01.328Z,100616.25
2022-10-07T22:44:28.354Z,100623.66
2022-10-07T22:46:56.701Z,100625.53
2022-10-07T22:49:30.460Z,100634.47
2022-10-07T22:52:00.556Z,100639.03
2022-10-07T22:54:28.165Z,100635.59
2022-10-07T22:56:55.130Z,100635.78
2022-10-07T22:59:22.018Z,100642.81
2022-10-07T23:01:48.852Z,100641.28
2022-10-07T23:04:15.817Z,100642.44
2022-10-07T23:06:42.773Z,100655.81
2022-10-07T23:09:09.648Z,100654.84
2022-10-07T23:11:36.544Z,100648.88
2022-10-07T23:14:03.555Z,100650.69
2022-10-07T23:16:31.493Z,100656.06
2022-10-07T23:18:58.832Z,100653.63
2022-10-07T23:21:33.260Z,100657.31
2022-10-07T23:24:06.832Z,100654.78
2022-10-07T23:26:34.444Z,100660.25
2022-10-07T23:29:01.408Z,100673.53
2022-10-07T23:31:30.704Z,100673.63
2022-10-07T23:33:58.948Z,100672.03
2022-10-07T23:36:26.369Z,100667.84
2022-10-07T23:38:53.886Z,100676.78
2022-10-07T23:41:23.637Z,100665.19
2022-10-07T23:43:57.713Z,100675.91
2022-10-07T23:46:26.649Z,100673.34
2022-10-07T23:48:54.528Z,100668.22
2022-10-07T23:51:24.184Z,100678.00
2022-10-07T23:53:51.644Z,100678.19
2022-10-07T23:56:18.943Z,100675.63
2022-10-07T23:58:45.925Z,100678.56
